sensor_id;sensor_type;location;lat;lon;timestamp;P1;durP1;ratioP1;P2;durP2;ratioP2
357;SDS011;167;47.558;7.602;2023-09-19T00:00:34;0.70;;;0.70;;
357;SDS011;167;47.558;7.602;2023-09-19T00:03:00;0.97;;;0.50;;
357;SDS011;167;47.558;7.602;2023-09-19T00:05:27;0.60;;;0.60;;
357;SDS011;167;47.558;7.602;2023-09-19T00:07:54;0.70;;;0.70;;
357;SDS011;167;47.558;7.602;2023-09-19T00:10:21;0.83;;;0.83;;
357;SDS011;167;47.558;7.602;2023-09-19T00:12:49;0.60;;;0.60;;
357;SDS011;167;47.558;7.602;2023-09-19T00:15:16;0.80;;;0.80;;
357;SDS011;167;47.558;7.602;2023-09-19T00:17:43;0.73;;;0.73;;
357;SDS011;167;47.558;7.602;2023-09-19T00:20:09;0.70;;;0.70;;
357;SDS011;167;47.558;7.602;2023-09-19T00:22:40;0.70;;;0.70;;
357;SDS011;167;47.558;7.602;2023-09-19T00:25:10;0.70;;;0.70;;
357;SDS011;167;47.558;7.602;2023-09-19T00:27:37;0.80;;;0.80;;
357;SDS011;167;47.558;7.602;2023-09-19T00:30:07;0.73;;;0.73;;
357;SDS011;167;47.558;7.602;2023-09-19T00:32:38;0.80;;;0.80;;
357;SDS011;167;47.558;7.602;2023-09-19T00:35:04;0.80;;;0.80;;
357;SDS011;167;47.558;7.602;2023-09-19T00:37:30;1.07;;;0.97;;
357;SDS011;167;47.558;7.602;2023-09-19T00:39:56;0.63;;;0.63;;
357;SDS011;167;47.558;7.602;2023-09-19T00:42:22;0.80;;;0.80;;
357;SDS011;167;47.558;7.602;2023-09-19T00:44:48;1.10;;;1.10;;
357;SDS011;167;47.558;7.602;2023-09-19T00:47:16;0.80;;;0.80;;
357;SDS011;167;47.558;7.602;2023-09-19T00:49:46;1.60;;;1.00;;
357;SDS011;167;47.558;7.602;2023-09-19T00:52:15;1.20;;;0.90;;
357;SDS011;167;47.558;7.602;2023-09-19T00:54:46;0.90;;;0.90;;
357;SDS011;167;47.558;7.602;2023-09-19T00:57:12;0.93;;;0.93;;
357;SDS011;167;47.558;7.602;2023-09-19T00:59:41;0.70;;;0.70;;
357;SDS011;167;47.558;7.602;2023-09-19T01:02:07;0.80;;;0.80;;
357;SDS011;167;47.558;7.602;2023-09-19T01:04:34;0.70;;;0.70;;
357;SDS011;167;47.558;7.602;2023-09-19T01:07:00;1.40;;;0.90;;
357;SDS011;167;47.558;7.602;2023-09-19T01:09:26;0.77;;;0.77;;
357;SDS011;167;47.558;7.602;2023-09-19T01:11:53;0.70;;;0.70;;
357;SDS011;167;47.558;7.602;2023-09-19T01:14:42;1.07;;;1.00;;
357;SDS011;167;47.558;7.602;2023-09-19T01:17:18;0.80;;;0.80;;
357;SDS011;167;47.558;7.602;2023-09-19T01:22:26;0.83;;;0.83;;
357;SDS011;167;47.558;7.602;2023-09-19T01:27:35;0.90;;;0.90;;
357;SDS011;167;47.558;7.602;2023-09-19T01:30:14;0.90;;;0.90;;
357;SDS011;167;47.558;7.602;2023-09-19T01:32:43;1.00;;;1.00;;
357;SDS011;167;47.558;7.602;2023-09-19T01:35:11;1.90;;;1.07;;
357;SDS011;167;47.558;7.602;2023-09-19T01:37:38;1.03;;;1.00;;
357;SDS011;167;47.558;7.602;2023-09-19T01:40:05;1.03;;;1.03;;
357;SDS011;167;47.558;7.602;2023-09-19T01:45:13;1.80;;;1.10;;
357;SDS011;167;47.558;7.602;2023-09-19T01:47:48;0.93;;;0.80;;
357;SDS011;167;47.558;7.602;2023-09-19T01:52:45;0.90;;;0.90;;
357;SDS011;167;47.558;7.602;2023-09-19T01:55:13;0.87;;;0.87;;
357;SDS011;167;47.558;7.602;2023-09-19T01:57:45;0.90;;;0.90;;
357;SDS011;167;47.558;7.602;2023-09-19T02:00:15;1.30;;;0.90;;
357;SDS011;167;47.558;7.602;2023-09-19T02:02:46;0.80;;;0.80;;
357;SDS011;167;47.558;7.602;2023-09-19T02:05:13;0.90;;;0.90;;
357;SDS011;167;47.558;7.602;2023-09-19T02:07:39;0.90;;;0.90;;
357;SDS011;167;47.558;7.602;2023-09-19T02:10:05;0.73;;;0.73;;
357;SDS011;167;47.558;7.602;2023-09-19T02:12:32;0.67;;;0.67;;
357;SDS011;167;47.558;7.602;2023-09-19T02:14:58;0.70;;;0.70;;
357;SDS011;167;47.558;7.602;2023-09-19T02:17:27;1.13;;;0.90;;
357;SDS011;167;47.558;7.602;2023-09-19T02:19:53;0.80;;;0.80;;
357;SDS011;167;47.558;7.602;2023-09-19T02:22:20;0.90;;;0.90;;
357;SDS011;167;47.558;7.602;2023-09-19T02:24:46;1.30;;;1.30;;
357;SDS011;167;47.558;7.602;2023-09-19T02:27:13;0.93;;;0.90;;
357;SDS011;167;47.558;7.602;2023-09-19T02:29:41;1.00;;;0.83;;
357;SDS011;167;47.558;7.602;2023-09-19T02:32:07;1.10;;;1.10;;
357;SDS011;167;47.558;7.602;2023-09-19T02:34:34;0.73;;;0.73;;
357;SDS011;167;47.558;7.602;2023-09-19T02:37:01;0.97;;;0.97;;
357;SDS011;167;47.558;7.602;2023-09-19T02:39:30;1.10;;;1.10;;
357;SDS011;167;47.558;7.602;2023-09-19T02:41:55;0.70;;;0.70;;
357;SDS011;167;47.558;7.602;2023-09-19T02:44:22;2.53;;;0.60;;
357;SDS011;167;47.558;7.602;2023-09-19T02:46:48;0.93;;;0.57;;
357;SDS011;167;47.558;7.602;2023-09-19T02:49:14;1.00;;;0.90;;
357;SDS011;167;47.558;7.602;2023-09-19T02:51:42;0.60;;;0.60;;
357;SDS011;167;47.558;7.602;2023-09-19T02:54:08;0.70;;;0.70;;
357;SDS011;167;47.558;7.602;2023-09-19T02:56:34;0.80;;;0.80;;
357;SDS011;167;47.558;7.602;2023-09-19T02:59:01;0.67;;;0.63;;
357;SDS011;167;47.558;7.602;2023-09-19T03:01:27;0.60;;;0.60;;
357;SDS011;167;47.558;7.602;2023-09-19T03:03:54;0.60;;;0.60;;
357;SDS011;167;47.558;7.602;2023-09-19T03:06:20;0.60;;;0.60;;
357;SDS011;167;47.558;7.602;2023-09-19T03:08:46;0.67;;;0.67;;
357;SDS011;167;47.558;7.602;2023-09-19T03:11:14;0.80;;;0.80;;
357;SDS011;167;47.558;7.602;2023-09-19T03:13:43;0.70;;;0.70;;
357;SDS011;167;47.558;7.602;2023-09-19T03:16:10;3.23;;;0.60;;
357;SDS011;167;47.558;7.602;2023-09-19T03:18:37;0.70;;;0.70;;
357;SDS011;167;47.558;7.602;2023-09-19T03:21:03;0.80;;;0.80;;
357;SDS011;167;47.558;7.602;2023-09-19T03:23:29;1.37;;;0.70;;
357;SDS011;167;47.558;7.602;2023-09-19T03:25:55;1.23;;;0.93;;
357;SDS011;167;47.558;7.602;2023-09-19T03:28:22;0.90;;;0.70;;
357;SDS011;167;47.558;7.602;2023-09-19T03:31:04;0.87;;;0.87;;
357;SDS011;167;47.558;7.602;2023-09-19T03:33:30;0.53;;;0.53;;
357;SDS011;167;47.558;7.602;2023-09-19T03:35:57;0.80;;;0.80;;
357;SDS011;167;47.558;7.602;2023-09-19T03:38:24;1.80;;;0.93;;
357;SDS011;167;47.558;7.602;2023-09-19T03:40:50;2.00;;;0.80;;
357;SDS011;167;47.558;7.602;2023-09-19T03:43:16;0.77;;;0.77;;
357;SDS011;167;47.558;7.602;2023-09-19T03:45:42;1.33;;;1.03;;
357;SDS011;167;47.558;7.602;2023-09-19T03:48:09;1.73;;;0.80;;
357;SDS011;167;47.558;7.602;2023-09-19T03:50:36;0.90;;;0.70;;
357;SDS011;167;47.558;7.602;2023-09-19T03:53:02;0.60;;;0.60;;
357;SDS011;167;47.558;7.602;2023-09-19T03:55:28;0.80;;;0.80;;
357;SDS011;167;47.558;7.602;2023-09-19T03:57:57;0.70;;;0.70;;
357;SDS011;167;47.558;7.602;2023-09-19T04:00:23;0.93;;;0.60;;
357;SDS011;167;47.558;7.602;2023-09-19T04:02:51;0.80;;;0.80;;
357;SDS011;167;47.558;7.602;2023-09-19T04:05:18;1.13;;;0.70;;
357;SDS011;167;47.558;7.602;2023-09-19T04:07:44;1.07;;;0.80;;
357;SDS011;167;47.558;7.602;2023-09-19T04:10:10;0.67;;;0.67;;
357;SDS011;167;47.558;7.602;2023-09-19T04:12:39;1.53;;;1.10;;
357;SDS011;167;47.558;7.602;2023-09-19T04:15:06;0.70;;;0.63;;
357;SDS011;167;47.558;7.602;2023-09-19T04:17:32;5.30;;;0.93;;
357;SDS011;167;47.558;7.602;2023-09-19T04:19:58;1.00;;;1.00;;
357;SDS011;167;47.558;7.602;2023-09-19T04:22:24;0.57;;;0.57;;
357;SDS011;167;47.558;7.602;2023-09-19T04:24:50;1.13;;;0.70;;
357;SDS011;167;47.558;7.602;2023-09-19T04:27:16;1.17;;;0.97;;
357;SDS011;167;47.558;7.602;2023-09-19T04:29:43;1.07;;;0.80;;
357;SDS011;167;47.558;7.602;2023-09-19T04:32:09;1.90;;;0.70;;
357;SDS011;167;47.558;7.602;2023-09-19T04:34:35;2.00;;;1.10;;
357;SDS011;167;47.558;7.602;2023-09-19T04:37:03;1.13;;;0.80;;
357;SDS011;167;47.558;7.602;2023-09-19T04:39:29;0.70;;;0.70;;
357;SDS011;167;47.558;7.602;2023-09-19T04:41:55;1.27;;;0.87;;
357;SDS011;167;47.558;7.602;2023-09-19T04:44:22;1.20;;;0.83;;
357;SDS011;167;47.558;7.602;2023-09-19T04:46:47;2.03;;;0.80;;
357;SDS011;167;47.558;7.602;2023-09-19T04:49:13;0.63;;;0.63;;
357;SDS011;167;47.558;7.602;2023-09-19T04:51:39;1.90;;;0.97;;
357;SDS011;167;47.558;7.602;2023-09-19T04:54:05;0.67;;;0.67;;
357;SDS011;167;47.558;7.602;2023-09-19T04:56:31;1.33;;;1.20;;
357;SDS011;167;47.558;7.602;2023-09-19T04:58:58;0.80;;;0.80;;
357;SDS011;167;47.558;7.602;2023-09-19T05:01:25;0.93;;;0.93;;
357;SDS011;167;47.558;7.602;2023-09-19T05:03:51;1.07;;;1.07;;
357;SDS011;167;47.558;7.602;2023-09-19T05:06:20;0.90;;;0.90;;
357;SDS011;167;47.558;7.602;2023-09-19T05:08:47;0.70;;;0.70;;
357;SDS011;167;47.558;7.602;2023-09-19T05:11:17;1.23;;;0.73;;
357;SDS011;167;47.558;7.602;2023-09-19T05:13:43;0.60;;;0.60;;
357;SDS011;167;47.558;7.602;2023-09-19T05:16:09;0.93;;;0.80;;
357;SDS011;167;47.558;7.602;2023-09-19T05:18:35;1.00;;;0.90;;
357;SDS011;167;47.558;7.602;2023-09-19T05:21:04;1.33;;;0.83;;
357;SDS011;167;47.558;7.602;2023-09-19T05:23:30;0.80;;;0.80;;
357;SDS011;167;47.558;7.602;2023-09-19T05:25:56;1.10;;;1.00;;
357;SDS011;167;47.558;7.602;2023-09-19T05:28:25;1.60;;;1.03;;
357;SDS011;167;47.558;7.602;2023-09-19T05:30:51;0.63;;;0.63;;
357;SDS011;167;47.558;7.602;2023-09-19T05:33:18;2.20;;;0.90;;
357;SDS011;167;47.558;7.602;2023-09-19T05:35:44;0.83;;;0.83;;
357;SDS011;167;47.558;7.602;2023-09-19T05:38:12;0.77;;;0.77;;
357;SDS011;167;47.558;7.602;2023-09-19T05:40:39;0.70;;;0.70;;
357;SDS011;167;47.558;7.602;2023-09-19T05:43:10;0.60;;;0.60;;
357;SDS011;167;47.558;7.602;2023-09-19T05:45:36;1.33;;;0.90;;
357;SDS011;167;47.558;7.602;2023-09-19T05:48:12;0.67;;;0.67;;
357;SDS011;167;47.558;7.602;2023-09-19T05:50:38;1.10;;;0.93;;
357;SDS011;167;47.558;7.602;2023-09-19T05:53:04;1.03;;;0.93;;
357;SDS011;167;47.558;7.602;2023-09-19T05:55:31;1.33;;;1.10;;
357;SDS011;167;47.558;7.602;2023-09-19T05:57:57;0.87;;;0.87;;
357;SDS011;167;47.558;7.602;2023-09-19T06:00:23;1.00;;;0.90;;
357;SDS011;167;47.558;7.602;2023-09-19T06:02:50;0.93;;;0.70;;
357;SDS011;167;47.558;7.602;2023-09-19T06:05:17;1.00;;;1.00;;
357;SDS011;167;47.558;7.602;2023-09-19T06:07:43;1.00;;;0.70;;
357;SDS011;167;47.558;7.602;2023-09-19T06:10:09;5.07;;;1.10;;
357;SDS011;167;47.558;7.602;2023-09-19T06:12:38;1.00;;;1.00;;
357;SDS011;167;47.558;7.602;2023-09-19T06:15:04;1.03;;;1.03;;
357;SDS011;167;47.558;7.602;2023-09-19T06:17:33;1.33;;;0.93;;
357;SDS011;167;47.558;7.602;2023-09-19T06:20:02;1.23;;;1.13;;
357;SDS011;167;47.558;7.602;2023-09-19T06:22:29;0.70;;;0.70;;
357;SDS011;167;47.558;7.602;2023-09-19T06:24:55;1.00;;;0.90;;
357;SDS011;167;47.558;7.602;2023-09-19T06:27:21;1.10;;;1.00;;
357;SDS011;167;47.558;7.602;2023-09-19T06:29:47;1.17;;;0.90;;
357;SDS011;167;47.558;7.602;2023-09-19T06:32:13;0.80;;;0.80;;
357;SDS011;167;47.558;7.602;2023-09-19T06:34:39;1.20;;;1.10;;
357;SDS011;167;47.558;7.602;2023-09-19T06:37:08;1.10;;;1.10;;
357;SDS011;167;47.558;7.602;2023-09-19T06:39:34;2.30;;;1.03;;
357;SDS011;167;47.558;7.602;2023-09-19T06:42:00;1.13;;;0.77;;
357;SDS011;167;47.558;7.602;2023-09-19T06:44:26;1.27;;;0.83;;
357;SDS011;167;47.558;7.602;2023-09-19T06:46:54;0.93;;;0.70;;
357;SDS011;167;47.558;7.602;2023-09-19T06:49:20;0.90;;;0.90;;
357;SDS011;167;47.558;7.602;2023-09-19T06:51:46;1.23;;;1.10;;
357;SDS011;167;47.558;7.602;2023-09-19T06:54:14;1.33;;;0.90;;
357;SDS011;167;47.558;7.602;2023-09-19T06:56:40;0.73;;;0.73;;
357;SDS011;167;47.558;7.602;2023-09-19T06:59:06;0.70;;;0.70;;
357;SDS011;167;47.558;7.602;2023-09-19T07:01:32;0.70;;;0.67;;
357;SDS011;167;47.558;7.602;2023-09-19T07:03:59;1.07;;;0.70;;
357;SDS011;167;47.558;7.602;2023-09-19T07:06:25;1.10;;;0.80;;
357;SDS011;167;47.558;7.602;2023-09-19T07:08:50;1.10;;;0.90;;
357;SDS011;167;47.558;7.602;2023-09-19T07:11:17;0.83;;;0.83;;
357;SDS011;167;47.558;7.602;2023-09-19T07:13:44;1.30;;;1.00;;
357;SDS011;167;47.558;7.602;2023-09-19T07:16:09;0.90;;;0.90;;
357;SDS011;167;47.558;7.602;2023-09-19T07:18:52;0.90;;;0.90;;
357;SDS011;167;47.558;7.602;2023-09-19T07:21:18;0.60;;;0.60;;
357;SDS011;167;47.558;7.602;2023-09-19T07:23:43;0.80;;;0.80;;
357;SDS011;167;47.558;7.602;2023-09-19T07:26:09;0.83;;;0.83;;
357;SDS011;167;47.558;7.602;2023-09-19T07:28:35;0.77;;;0.77;;
357;SDS011;167;47.558;7.602;2023-09-19T07:31:04;0.60;;;0.60;;
357;SDS011;167;47.558;7.602;2023-09-19T07:33:32;0.83;;;0.83;;
357;SDS011;167;47.558;7.602;2023-09-19T07:35:58;0.70;;;0.70;;
357;SDS011;167;47.558;7.602;2023-09-19T07:38:24;0.50;;;0.50;;
357;SDS011;167;47.558;7.602;2023-09-19T07:40:51;1.17;;;0.60;;
357;SDS011;167;47.558;7.602;2023-09-19T07:43:17;0.93;;;0.93;;
357;SDS011;167;47.558;7.602;2023-09-19T07:45:43;1.03;;;0.63;;
357;SDS011;167;47.558;7.602;2023-09-19T07:48:09;1.03;;;0.83;;
357;SDS011;167;47.558;7.602;2023-09-19T07:50:39;0.90;;;0.90;;
357;SDS011;167;47.558;7.602;2023-09-19T07:53:08;0.60;;;0.50;;
357;SDS011;167;47.558;7.602;2023-09-19T07:55:34;0.70;;;0.70;;
357;SDS011;167;47.558;7.602;2023-09-19T07:58:00;1.33;;;1.00;;
357;SDS011;167;47.558;7.602;2023-09-19T08:00:28;1.20;;;0.87;;
357;SDS011;167;47.558;7.602;2023-09-19T08:02:54;2.80;;;2.60;;
357;SDS011;167;47.558;7.602;2023-09-19T08:05:20;0.83;;;0.83;;
357;SDS011;167;47.558;7.602;2023-09-19T08:07:47;0.83;;;0.73;;
357;SDS011;167;47.558;7.602;2023-09-19T08:10:13;1.20;;;1.10;;
357;SDS011;167;47.558;7.602;2023-09-19T08:12:41;1.27;;;1.27;;
357;SDS011;167;47.558;7.602;2023-09-19T08:15:16;6.40;;;6.10;;
357;SDS011;167;47.558;7.602;2023-09-19T08:17:44;7.07;;;6.97;;
357;SDS011;167;47.558;7.602;2023-09-19T08:20:10;0.77;;;0.77;;
357;SDS011;167;47.558;7.602;2023-09-19T08:22:42;5.17;;;5.07;;
357;SDS011;167;47.558;7.602;2023-09-19T08:25:09;5.83;;;5.73;;
357;SDS011;167;47.558;7.602;2023-09-19T08:27:35;9.50;;;9.30;;
357;SDS011;167;47.558;7.602;2023-09-19T08:30:01;6.53;;;6.43;;
357;SDS011;167;47.558;7.602;2023-09-19T08:32:28;4.03;;;4.03;;
357;SDS011;167;47.558;7.602;2023-09-19T08:34:54;3.47;;;3.47;;
357;SDS011;167;47.558;7.602;2023-09-19T08:37:20;2.60;;;2.60;;
357;SDS011;167;47.558;7.602;2023-09-19T08:39:46;1.90;;;1.90;;
357;SDS011;167;47.558;7.602;2023-09-19T08:42:12;4.20;;;4.20;;
357;SDS011;167;47.558;7.602;2023-09-19T08:44:38;6.30;;;6.20;;
357;SDS011;167;47.558;7.602;2023-09-19T08:47:09;9.50;;;9.20;;
357;SDS011;167;47.558;7.602;2023-09-19T08:49:50;3.27;;;3.17;;
357;SDS011;167;47.558;7.602;2023-09-19T08:52:24;4.17;;;4.07;;
357;SDS011;167;47.558;7.602;2023-09-19T08:54:51;3.13;;;3.03;;
357;SDS011;167;47.558;7.602;2023-09-19T08:57:18;6.20;;;6.10;;
357;SDS011;167;47.558;7.602;2023-09-19T08:59:47;6.63;;;6.53;;
357;SDS011;167;47.558;7.602;2023-09-19T09:02:15;8.83;;;8.63;;
357;SDS011;167;47.558;7.602;2023-09-19T09:04:42;4.20;;;4.10;;
357;SDS011;167;47.558;7.602;2023-09-19T09:07:12;29.37;;;28.67;;
357;SDS011;167;47.558;7.602;2023-09-19T09:09:38;28.23;;;27.52;;
357;SDS011;167;47.558;7.602;2023-09-19T09:12:12;21.47;;;20.97;;
357;SDS011;167;47.558;7.602;2023-09-19T09:14:38;10.87;;;10.67;;
357;SDS011;167;47.558;7.602;2023-09-19T09:17:04;7.50;;;7.40;;
357;SDS011;167;47.558;7.602;2023-09-19T09:19:30;6.63;;;6.40;;
357;SDS011;167;47.558;7.602;2023-09-19T09:22:06;6.07;;;5.77;;
357;SDS011;167;47.558;7.602;2023-09-19T09:24:32;3.78;;;3.78;;
357;SDS011;167;47.558;7.602;2023-09-19T09:26:59;4.88;;;4.78;;
357;SDS011;167;47.558;7.602;2023-09-19T09:34:48;1.85;;;1.85;;
357;SDS011;167;47.558;7.602;2023-09-19T09:37:14;1.23;;;1.23;;
357;SDS011;167;47.558;7.602;2023-09-19T09:39:48;1.50;;;1.50;;
357;SDS011;167;47.558;7.602;2023-09-19T09:42:29;1.00;;;1.00;;
357;SDS011;167;47.558;7.602;2023-09-19T09:45:12;0.70;;;0.70;;
357;SDS011;167;47.558;7.602;2023-09-19T09:47:47;0.88;;;0.88;;
357;SDS011;167;47.558;7.602;2023-09-19T09:50:26;0.50;;;0.50;;
357;SDS011;167;47.558;7.602;2023-09-19T09:53:04;0.60;;;0.60;;
357;SDS011;167;47.558;7.602;2023-09-19T09:55:56;0.80;;;0.80;;
357;SDS011;167;47.558;7.602;2023-09-19T09:58:22;0.70;;;0.70;;
357;SDS011;167;47.558;7.602;2023-09-19T10:00:57;0.47;;;0.47;;
357;SDS011;167;47.558;7.602;2023-09-19T10:03:49;0.83;;;0.60;;
357;SDS011;167;47.558;7.602;2023-09-19T10:06:18;0.50;;;0.50;;
357;SDS011;167;47.558;7.602;2023-09-19T10:09:06;0.60;;;0.60;;
357;SDS011;167;47.558;7.602;2023-09-19T10:11:32;0.40;;;0.40;;
357;SDS011;167;47.558;7.602;2023-09-19T10:13:58;0.50;;;0.50;;
357;SDS011;167;47.558;7.602;2023-09-19T10:16:26;0.43;;;0.40;;
357;SDS011;167;47.558;7.602;2023-09-19T10:18:55;0.75;;;0.50;;
357;SDS011;167;47.558;7.602;2023-09-19T10:21:23;0.55;;;0.55;;
357;SDS011;167;47.558;7.602;2023-09-19T10:23:49;0.75;;;0.60;;
357;SDS011;167;47.558;7.602;2023-09-19T10:26:17;1.65;;;0.80;;
357;SDS011;167;47.558;7.602;2023-09-19T10:28:43;0.80;;;0.80;;
357;SDS011;167;47.558;7.602;2023-09-19T10:31:13;0.40;;;0.40;;
357;SDS011;167;47.558;7.602;2023-09-19T10:33:39;0.95;;;0.60;;
357;SDS011;167;47.558;7.602;2023-09-19T10:36:06;0.77;;;0.77;;
357;SDS011;167;47.558;7.602;2023-09-19T10:38:33;0.60;;;0.60;;
357;SDS011;167;47.558;7.602;2023-09-19T10:41:01;0.80;;;0.80;;
357;SDS011;167;47.558;7.602;2023-09-19T10:43:31;0.70;;;0.67;;
357;SDS011;167;47.558;7.602;2023-09-19T10:46:01;0.50;;;0.50;;
357;SDS011;167;47.558;7.602;2023-09-19T10:48:31;0.50;;;0.50;;
357;SDS011;167;47.558;7.602;2023-09-19T10:51:16;0.70;;;0.70;;
357;SDS011;167;47.558;7.602;2023-09-19T10:56:11;0.60;;;0.60;;
357;SDS011;167;47.558;7.602;2023-09-19T10:58:42;0.60;;;0.60;;
357;SDS011;167;47.558;7.602;2023-09-19T11:01:09;0.63;;;0.63;;
357;SDS011;167;47.558;7.602;2023-09-19T11:03:40;0.73;;;0.73;;
357;SDS011;167;47.558;7.602;2023-09-19T11:06:10;0.50;;;0.50;;
357;SDS011;167;47.558;7.602;2023-09-19T11:08:50;0.40;;;0.40;;
357;SDS011;167;47.558;7.602;2023-09-19T11:22:21;0.90;;;0.70;;
357;SDS011;167;47.558;7.602;2023-09-19T11:24:47;0.70;;;0.70;;
357;SDS011;167;47.558;7.602;2023-09-19T11:27:16;0.63;;;0.50;;
357;SDS011;167;47.558;7.602;2023-09-19T11:29:43;0.77;;;0.55;;
357;SDS011;167;47.558;7.602;2023-09-19T11:32:09;0.70;;;0.70;;
357;SDS011;167;47.558;7.602;2023-09-19T11:42:41;0.50;;;0.50;;
357;SDS011;167;47.558;7.602;2023-09-19T11:47:55;0.63;;;0.40;;
357;SDS011;167;47.558;7.602;2023-09-19T11:50:23;0.40;;;0.40;;
357;SDS011;167;47.558;7.602;2023-09-19T11:52:50;0.50;;;0.50;;
357;SDS011;167;47.558;7.602;2023-09-19T11:55:17;0.40;;;0.40;;
357;SDS011;167;47.558;7.602;2023-09-19T11:57:46;0.82;;;0.50;;
357;SDS011;167;47.558;7.602;2023-09-19T12:00:18;0.40;;;0.40;;
357;SDS011;167;47.558;7.602;2023-09-19T12:02:46;0.80;;;0.70;;
357;SDS011;167;47.558;7.602;2023-09-19T12:05:13;0.60;;;0.60;;
357;SDS011;167;47.558;7.602;2023-09-19T12:07:43;0.50;;;0.50;;
357;SDS011;167;47.558;7.602;2023-09-19T12:10:11;0.70;;;0.57;;
357;SDS011;167;47.558;7.602;2023-09-19T12:12:40;0.40;;;0.40;;
357;SDS011;167;47.558;7.602;2023-09-19T12:15:13;0.50;;;0.50;;
357;SDS011;167;47.558;7.602;2023-09-19T12:17:39;0.50;;;0.50;;
357;SDS011;167;47.558;7.602;2023-09-19T12:20:07;0.50;;;0.50;;
357;SDS011;167;47.558;7.602;2023-09-19T12:22:43;0.40;;;0.40;;
357;SDS011;167;47.558;7.602;2023-09-19T12:25:09;0.90;;;0.90;;
357;SDS011;167;47.558;7.602;2023-09-19T12:27:43;1.13;;;1.13;;
357;SDS011;167;47.558;7.602;2023-09-19T12:30:10;0.60;;;0.60;;
357;SDS011;167;47.558;7.602;2023-09-19T12:32:39;0.63;;;0.57;;
357;SDS011;167;47.558;7.602;2023-09-19T12:35:09;0.57;;;0.57;;
357;SDS011;167;47.558;7.602;2023-09-19T12:37:43;1.27;;;1.27;;
357;SDS011;167;47.558;7.602;2023-09-19T12:40:17;0.60;;;0.60;;
357;SDS011;167;47.558;7.602;2023-09-19T12:42:47;0.60;;;0.60;;
357;SDS011;167;47.558;7.602;2023-09-19T12:45:13;0.73;;;0.73;;
357;SDS011;167;47.558;7.602;2023-09-19T12:47:41;1.40;;;0.60;;
357;SDS011;167;47.558;7.602;2023-09-19T12:50:27;0.80;;;0.80;;
357;SDS011;167;47.558;7.602;2023-09-19T12:52:54;0.50;;;0.50;;
357;SDS011;167;47.558;7.602;2023-09-19T12:57:57;0.80;;;0.80;;
357;SDS011;167;47.558;7.602;2023-09-19T13:03:09;0.87;;;0.70;;
357;SDS011;167;47.558;7.602;2023-09-19T13:05:50;1.33;;;1.00;;
357;SDS011;167;47.558;7.602;2023-09-19T13:08:19;0.50;;;0.50;;
357;SDS011;167;47.558;7.602;2023-09-19T13:13:32;0.70;;;0.70;;
357;SDS011;167;47.558;7.602;2023-09-19T13:15:58;0.70;;;0.70;;
357;SDS011;167;47.558;7.602;2023-09-19T13:18:26;0.70;;;0.70;;
357;SDS011;167;47.558;7.602;2023-09-19T13:21:08;0.93;;;0.70;;
357;SDS011;167;47.558;7.602;2023-09-19T13:23:47;0.70;;;0.70;;
357;SDS011;167;47.558;7.602;2023-09-19T13:26:13;0.80;;;0.80;;
357;SDS011;167;47.558;7.602;2023-09-19T13:28:40;0.50;;;0.50;;
357;SDS011;167;47.558;7.602;2023-09-19T13:31:06;0.40;;;0.30;;
357;SDS011;167;47.558;7.602;2023-09-19T13:33:33;0.50;;;0.50;;
357;SDS011;167;47.558;7.602;2023-09-19T13:36:00;0.50;;;0.50;;
357;SDS011;167;47.558;7.602;2023-09-19T13:38:26;0.50;;;0.50;;
357;SDS011;167;47.558;7.602;2023-09-19T13:40:53;1.80;;;0.70;;
357;SDS011;167;47.558;7.602;2023-09-19T13:43:19;1.43;;;0.60;;
357;SDS011;167;47.558;7.602;2023-09-19T13:45:47;0.50;;;0.50;;
357;SDS011;167;47.558;7.602;2023-09-19T13:48:13;0.40;;;0.40;;
357;SDS011;167;47.558;7.602;2023-09-19T13:50:39;0.50;;;0.50;;
357;SDS011;167;47.558;7.602;2023-09-19T13:53:07;0.50;;;0.50;;
357;SDS011;167;47.558;7.602;2023-09-19T13:55:34;0.60;;;0.60;;
357;SDS011;167;47.558;7.602;2023-09-19T13:58:00;0.70;;;0.53;;
357;SDS011;167;47.558;7.602;2023-09-19T14:00:26;0.70;;;0.70;;
357;SDS011;167;47.558;7.602;2023-09-19T14:02:53;0.60;;;0.60;;
357;SDS011;167;47.558;7.602;2023-09-19T14:05:19;0.60;;;0.60;;
357;SDS011;167;47.558;7.602;2023-09-19T14:07:45;0.40;;;0.40;;
357;SDS011;167;47.558;7.602;2023-09-19T14:10:11;0.80;;;0.60;;
357;SDS011;167;47.558;7.602;2023-09-19T14:12:37;0.40;;;0.40;;
357;SDS011;167;47.558;7.602;2023-09-19T14:15:05;0.50;;;0.50;;
357;SDS011;167;47.558;7.602;2023-09-19T14:17:32;0.63;;;0.60;;
357;SDS011;167;47.558;7.602;2023-09-19T14:19:58;0.60;;;0.60;;
357;SDS011;167;47.558;7.602;2023-09-19T14:22:24;0.50;;;0.50;;
357;SDS011;167;47.558;7.602;2023-09-19T14:24:50;1.07;;;0.50;;
357;SDS011;167;47.558;7.602;2023-09-19T14:27:17;0.40;;;0.40;;
357;SDS011;167;47.558;7.602;2023-09-19T14:29:43;0.50;;;0.50;;
357;SDS011;167;47.558;7.602;2023-09-19T14:32:09;0.70;;;0.70;;
357;SDS011;167;47.558;7.602;2023-09-19T14:34:35;1.07;;;0.50;;
357;SDS011;167;47.558;7.602;2023-09-19T14:37:06;0.50;;;0.50;;
357;SDS011;167;47.558;7.602;2023-09-19T14:39:32;0.80;;;0.70;;
357;SDS011;167;47.558;7.602;2023-09-19T14:41:58;0.60;;;0.60;;
357;SDS011;167;47.558;7.602;2023-09-19T14:44:24;0.57;;;0.57;;
357;SDS011;167;47.558;7.602;2023-09-19T14:46:50;0.60;;;0.60;;
357;SDS011;167;47.558;7.602;2023-09-19T14:49:16;0.73;;;0.70;;
357;SDS011;167;47.558;7.602;2023-09-19T14:51:42;0.83;;;0.50;;
357;SDS011;167;47.558;7.602;2023-09-19T14:54:09;0.93;;;0.60;;
357;SDS011;167;47.558;7.602;2023-09-19T14:56:35;0.60;;;0.60;;
357;SDS011;167;47.558;7.602;2023-09-19T14:59:01;1.03;;;0.60;;
357;SDS011;167;47.558;7.602;2023-09-19T15:01:27;0.47;;;0.47;;
357;SDS011;167;47.558;7.602;2023-09-19T15:03:54;0.60;;;0.60;;
357;SDS011;167;47.558;7.602;2023-09-19T15:06:20;0.60;;;0.60;;
357;SDS011;167;47.558;7.602;2023-09-19T15:08:46;1.03;;;0.60;;
357;SDS011;167;47.558;7.602;2023-09-19T15:11:16;1.43;;;0.60;;
357;SDS011;167;47.558;7.602;2023-09-19T15:13:42;1.30;;;0.80;;
357;SDS011;167;47.558;7.602;2023-09-19T15:16:09;0.70;;;0.70;;
357;SDS011;167;47.558;7.602;2023-09-19T15:18:39;0.50;;;0.50;;
357;SDS011;167;47.558;7.602;2023-09-19T15:21:06;0.73;;;0.73;;
357;SDS011;167;47.558;7.602;2023-09-19T15:23:33;1.23;;;0.97;;
357;SDS011;167;47.558;7.602;2023-09-19T15:26:00;0.90;;;0.80;;
357;SDS011;167;47.558;7.602;2023-09-19T15:28:26;0.70;;;0.70;;
357;SDS011;167;47.558;7.602;2023-09-19T15:31:04;0.60;;;0.60;;
357;SDS011;167;47.558;7.602;2023-09-19T15:33:31;0.57;;;0.57;;
357;SDS011;167;47.558;7.602;2023-09-19T15:36:15;0.57;;;0.50;;
357;SDS011;167;47.558;7.602;2023-09-19T15:41:29;0.70;;;0.70;;
357;SDS011;167;47.558;7.602;2023-09-19T15:43:56;0.60;;;0.60;;
357;SDS011;167;47.558;7.602;2023-09-19T15:46:22;0.70;;;0.70;;
357;SDS011;167;47.558;7.602;2023-09-19T15:48:48;0.70;;;0.70;;
357;SDS011;167;47.558;7.602;2023-09-19T15:51:15;0.60;;;0.60;;
357;SDS011;167;47.558;7.602;2023-09-19T15:53:43;0.90;;;0.90;;
357;SDS011;167;47.558;7.602;2023-09-19T15:56:10;1.27;;;1.00;;
357;SDS011;167;47.558;7.602;2023-09-19T15:58:36;0.97;;;0.90;;
357;SDS011;167;47.558;7.602;2023-09-19T16:01:04;0.60;;;0.60;;
357;SDS011;167;47.558;7.602;2023-09-19T16:03:33;0.80;;;0.80;;
357;SDS011;167;47.558;7.602;2023-09-19T16:05:59;0.70;;;0.70;;
357;SDS011;167;47.558;7.602;2023-09-19T16:08:25;1.03;;;0.80;;
357;SDS011;167;47.558;7.602;2023-09-19T16:10:52;0.90;;;0.90;;
357;SDS011;167;47.558;7.602;2023-09-19T16:13:18;1.00;;;1.00;;
357;SDS011;167;47.558;7.602;2023-09-19T16:15:44;0.70;;;0.70;;
357;SDS011;167;47.558;7.602;2023-09-19T16:18:10;1.20;;;0.80;;
357;SDS011;167;47.558;7.602;2023-09-19T16:20:36;0.80;;;0.80;;
357;SDS011;167;47.558;7.602;2023-09-19T16:23:04;0.57;;;0.57;;
357;SDS011;167;47.558;7.602;2023-09-19T16:25:30;1.13;;;0.80;;
357;SDS011;167;47.558;7.602;2023-09-19T16:27:57;1.07;;;1.07;;
357;SDS011;167;47.558;7.602;2023-09-19T16:30:23;0.73;;;0.73;;
357;SDS011;167;47.558;7.602;2023-09-19T16:32:49;1.03;;;1.00;;
357;SDS011;167;47.558;7.602;2023-09-19T16:35:15;0.90;;;0.90;;
357;SDS011;167;47.558;7.602;2023-09-19T16:37:41;2.10;;;0.87;;
357;SDS011;167;47.558;7.602;2023-09-19T16:40:08;0.70;;;0.70;;